Terminal Aerodrome Forecast
Issued by NWS Twin Cities, MN

Home | Current Version | Previous Version | Graphics & Text | Print | Product List | Glossary On
Versions: 1 2 3 4 5 6 7 8 9 10 11 12 13 14 15 16 17 18 19 20
947
FTUS43 KMPX 291137
TAFSTC
TAF
KSTC 291137Z 2912/3012 12005KT P6SM FEW018 OVC060
     FM291230 29007KT 4SM TSRA BKN018CB OVC040
      TEMPO 2913/2915 1SM +TSRA OVC012CB
     FM291500 19011KT P6SM SCT030 BKN040
     FM292200 VRB03KT P6SM SCT060 BKN090
      TEMPO 2922/3001 4SM -TSRA BKN060CB OVC090
     FM301000 27004KT P6SM SCT060 BKN090=

USA.gov is the U.S. government's official web portal to all federal, state and local government web resources and services.